sensor_id;sensor_type;location;lat;lon;timestamp;pressure;altitude;pressure_sealevel;temperature;humidity
74403;BME280;62837;51.082;13.744;2022-11-06T00:00:52;100833.46;;;8.63;74.93
74403;BME280;62837;51.082;13.744;2022-11-06T00:03:23;100837.89;;;8.64;75.19
74403;BME280;62837;51.082;13.744;2022-11-06T00:05:54;100840.80;;;8.66;74.75
74403;BME280;62837;51.082;13.744;2022-11-06T00:08:43;100845.55;;;8.63;73.75
74403;BME280;62837;51.082;13.744;2022-11-06T00:11:15;100846.43;;;8.59;74.12
74403;BME280;62837;51.082;13.744;2022-11-06T00:13:46;100841.80;;;8.48;73.56
74403;BME280;62837;51.082;13.744;2022-11-06T00:16:18;100836.92;;;8.42;74.00
74403;BME280;62837;51.082;13.744;2022-11-06T00:18:50;100837.23;;;8.43;73.96
74403;BME280;62837;51.082;13.744;2022-11-06T00:21:23;100835.88;;;8.44;74.16
74403;BME280;62837;51.082;13.744;2022-11-06T00:23:55;100828.91;;;8.47;74.33
74403;BME280;62837;51.082;13.744;2022-11-06T00:26:28;100830.97;;;8.51;74.16
74403;BME280;62837;51.082;13.744;2022-11-06T00:29:00;100828.07;;;8.47;72.46
74403;BME280;62837;51.082;13.744;2022-11-06T00:31:32;100829.25;;;8.34;73.67
74403;BME280;62837;51.082;13.744;2022-11-06T00:34:05;100826.95;;;8.30;73.19
74403;BME280;62837;51.082;13.744;2022-11-06T00:36:36;100826.60;;;8.26;74.14
74403;BME280;62837;51.082;13.744;2022-11-06T00:39:08;100817.16;;;8.30;73.88
74403;BME280;62837;51.082;13.744;2022-11-06T00:41:40;100817.58;;;8.30;73.48
74403;BME280;62837;51.082;13.744;2022-11-06T00:44:11;100817.65;;;8.32;73.85
74403;BME280;62837;51.082;13.744;2022-11-06T00:46:42;100819.30;;;8.34;73.67
74403;BME280;62837;51.082;13.744;2022-11-06T00:49:13;100820.88;;;8.38;74.20
74403;BME280;62837;51.082;13.744;2022-11-06T00:51:44;100821.66;;;8.42;73.35
74403;BME280;62837;51.082;13.744;2022-11-06T00:54:15;100824.83;;;8.34;72.66
74403;BME280;62837;51.082;13.744;2022-11-06T00:56:45;100826.04;;;8.21;72.15
74403;BME280;62837;51.082;13.744;2022-11-06T00:59:16;100825.91;;;8.08;73.29
74403;BME280;62837;51.082;13.744;2022-11-06T01:01:47;100827.95;;;7.99;72.80
74403;BME280;62837;51.082;13.744;2022-11-06T01:04:20;100827.11;;;7.92;72.92
74403;BME280;62837;51.082;13.744;2022-11-06T01:06:53;100823.90;;;7.89;72.99
74403;BME280;62837;51.082;13.744;2022-11-06T01:09:26;100825.10;;;7.91;73.93
74403;BME280;62837;51.082;13.744;2022-11-06T01:11:58;100820.56;;;7.93;73.44
74403;BME280;62837;51.082;13.744;2022-11-06T01:14:44;100824.86;;;8.00;73.81
74403;BME280;62837;51.082;13.744;2022-11-06T01:17:15;100825.35;;;7.98;73.01
74403;BME280;62837;51.082;13.744;2022-11-06T01:19:46;100824.07;;;7.90;72.34
74403;BME280;62837;51.082;13.744;2022-11-06T01:22:17;100824.52;;;7.83;73.41
74403;BME280;62837;51.082;13.744;2022-11-06T01:24:48;100825.20;;;7.85;73.72
74403;BME280;62837;51.082;13.744;2022-11-06T01:27:19;100828.85;;;7.84;73.04
74403;BME280;62837;51.082;13.744;2022-11-06T01:29:56;100827.41;;;7.86;73.37
74403;BME280;62837;51.082;13.744;2022-11-06T01:32:27;100822.33;;;7.90;73.92
74403;BME280;62837;51.082;13.744;2022-11-06T01:34:58;100821.27;;;7.99;74.34
74403;BME280;62837;51.082;13.744;2022-11-06T01:37:28;100822.04;;;8.06;73.26
74403;BME280;62837;51.082;13.744;2022-11-06T01:39:59;100821.66;;;8.05;72.41
74403;BME280;62837;51.082;13.744;2022-11-06T01:42:30;100822.63;;;8.02;73.34
74403;BME280;62837;51.082;13.744;2022-11-06T01:45:18;100814.38;;;8.05;73.18
74403;BME280;62837;51.082;13.744;2022-11-06T01:47:50;100814.27;;;8.09;72.85
74403;BME280;62837;51.082;13.744;2022-11-06T01:50:21;100813.11;;;8.11;72.30
74403;BME280;62837;51.082;13.744;2022-11-06T01:52:52;100810.75;;;8.06;72.76
74403;BME280;62837;51.082;13.744;2022-11-06T01:55:26;100806.80;;;8.08;72.98
74403;BME280;62837;51.082;13.744;2022-11-06T01:58:00;100809.55;;;8.13;73.12
74403;BME280;62837;51.082;13.744;2022-11-06T02:00:33;100803.52;;;8.15;71.91
74403;BME280;62837;51.082;13.744;2022-11-06T02:03:04;100800.90;;;8.11;72.22
74403;BME280;62837;51.082;13.744;2022-11-06T02:05:35;100805.60;;;8.06;72.31
74403;BME280;62837;51.082;13.744;2022-11-06T02:08:08;100805.15;;;8.08;72.21
74403;BME280;62837;51.082;13.744;2022-11-06T02:10:40;100796.81;;;8.02;71.89
74403;BME280;62837;51.082;13.744;2022-11-06T02:13:29;100801.09;;;8.01;72.33
74403;BME280;62837;51.082;13.744;2022-11-06T02:16:11;100793.99;;;8.05;72.55
74403;BME280;62837;51.082;13.744;2022-11-06T02:22:01;100784.27;;;8.20;72.68
74403;BME280;62837;51.082;13.744;2022-11-06T02:24:52;100780.85;;;8.27;71.83
74403;BME280;62837;51.082;13.744;2022-11-06T02:27:27;100776.54;;;8.18;72.00
74403;BME280;62837;51.082;13.744;2022-11-06T02:29:59;100771.59;;;8.15;71.47
74403;BME280;62837;51.082;13.744;2022-11-06T02:32:34;100763.41;;;8.06;71.27
74403;BME280;62837;51.082;13.744;2022-11-06T02:35:15;100774.84;;;8.07;71.48
74403;BME280;62837;51.082;13.744;2022-11-06T02:37:50;100775.23;;;8.05;71.28
74403;BME280;62837;51.082;13.744;2022-11-06T02:40:27;100780.85;;;7.96;71.35
74403;BME280;62837;51.082;13.744;2022-11-06T02:43:06;100779.15;;;7.93;71.90
74403;BME280;62837;51.082;13.744;2022-11-06T02:45:43;100783.98;;;7.93;71.45
74403;BME280;62837;51.082;13.744;2022-11-06T02:48:19;100776.32;;;7.88;71.95
74403;BME280;62837;51.082;13.744;2022-11-06T02:50:51;100767.08;;;7.93;72.50
74403;BME280;62837;51.082;13.744;2022-11-06T02:53:26;100766.56;;;7.99;72.11
74403;BME280;62837;51.082;13.744;2022-11-06T02:56:03;100767.76;;;8.03;71.72
74403;BME280;62837;51.082;13.744;2022-11-06T02:58:40;100774.73;;;7.86;69.89
74403;BME280;62837;51.082;13.744;2022-11-06T03:01:23;100776.12;;;7.63;70.97
74403;BME280;62837;51.082;13.744;2022-11-06T03:03:59;100775.90;;;7.57;71.99
74403;BME280;62837;51.082;13.744;2022-11-06T03:06:35;100775.68;;;7.61;72.34
74403;BME280;62837;51.082;13.744;2022-11-06T03:09:11;100773.03;;;7.70;72.55
74403;BME280;62837;51.082;13.744;2022-11-06T03:11:44;100767.00;;;7.77;72.32
74403;BME280;62837;51.082;13.744;2022-11-06T03:14:26;100766.55;;;7.83;72.30
74403;BME280;62837;51.082;13.744;2022-11-06T03:17:02;100765.27;;;7.90;72.40
74403;BME280;62837;51.082;13.744;2022-11-06T03:19:41;100762.39;;;7.96;72.27
74403;BME280;62837;51.082;13.744;2022-11-06T03:22:20;100763.89;;;8.03;72.25
74403;BME280;62837;51.082;13.744;2022-11-06T03:25:01;100763.84;;;8.08;71.81
74403;BME280;62837;51.082;13.744;2022-11-06T03:27:37;100766.69;;;8.12;71.63
74403;BME280;62837;51.082;13.744;2022-11-06T03:30:12;100770.55;;;8.14;71.30
74403;BME280;62837;51.082;13.744;2022-11-06T03:32:48;100767.60;;;8.13;71.51
74403;BME280;62837;51.082;13.744;2022-11-06T03:35:25;100767.81;;;8.13;71.14
74403;BME280;62837;51.082;13.744;2022-11-06T03:38:00;100766.93;;;8.13;71.29
74403;BME280;62837;51.082;13.744;2022-11-06T03:40:35;100763.63;;;8.14;70.98
74403;BME280;62837;51.082;13.744;2022-11-06T03:43:09;100764.52;;;8.15;71.06
74403;BME280;62837;51.082;13.744;2022-11-06T03:45:43;100761.53;;;8.14;70.59
74403;BME280;62837;51.082;13.744;2022-11-06T03:48:20;100757.52;;;8.01;69.59
74403;BME280;62837;51.082;13.744;2022-11-06T03:50:57;100755.21;;;7.89;70.11
74403;BME280;62837;51.082;13.744;2022-11-06T03:53:33;100752.64;;;7.80;70.25
74403;BME280;62837;51.082;13.744;2022-11-06T03:56:11;100755.92;;;7.80;71.02
74403;BME280;62837;51.082;13.744;2022-11-06T03:58:45;100753.71;;;7.84;71.14
74403;BME280;62837;51.082;13.744;2022-11-06T04:01:25;100756.85;;;7.83;70.12
74403;BME280;62837;51.082;13.744;2022-11-06T04:04:00;100765.52;;;7.77;70.19
74403;BME280;62837;51.082;13.744;2022-11-06T04:06:34;100766.37;;;7.74;70.95
74403;BME280;62837;51.082;13.744;2022-11-06T04:09:08;100766.39;;;7.72;70.24
74403;BME280;62837;51.082;13.744;2022-11-06T04:11:59;100762.11;;;7.65;70.35
74403;BME280;62837;51.082;13.744;2022-11-06T04:14:53;100757.83;;;7.57;70.03
74403;BME280;62837;51.082;13.744;2022-11-06T04:17:28;100756.96;;;7.46;70.22
74403;BME280;62837;51.082;13.744;2022-11-06T04:20:04;100754.77;;;7.34;70.14
74403;BME280;62837;51.082;13.744;2022-11-06T04:22:45;100757.89;;;7.30;70.84
74403;BME280;62837;51.082;13.744;2022-11-06T04:25:31;100759.17;;;7.33;71.22
74403;BME280;62837;51.082;13.744;2022-11-06T04:28:31;100757.30;;;7.35;70.30
74403;BME280;62837;51.082;13.744;2022-11-06T04:31:10;100757.44;;;7.24;70.26
74403;BME280;62837;51.082;13.744;2022-11-06T04:33:49;100756.20;;;7.19;70.39
74403;BME280;62837;51.082;13.744;2022-11-06T04:36:31;100760.08;;;7.14;70.64
74403;BME280;62837;51.082;13.744;2022-11-06T04:39:08;100754.29;;;7.13;69.69
74403;BME280;62837;51.082;13.744;2022-11-06T04:41:44;100754.59;;;6.98;70.27
74403;BME280;62837;51.082;13.744;2022-11-06T04:44:22;100751.60;;;6.94;70.36
74403;BME280;62837;51.082;13.744;2022-11-06T04:46:58;100750.09;;;6.89;69.92
74403;BME280;62837;51.082;13.744;2022-11-06T04:49:32;100747.95;;;6.73;69.42
74403;BME280;62837;51.082;13.744;2022-11-06T04:52:07;100743.49;;;6.46;69.52
74403;BME280;62837;51.082;13.744;2022-11-06T04:54:40;100740.94;;;6.29;70.30
74403;BME280;62837;51.082;13.744;2022-11-06T04:57:11;100745.70;;;6.12;70.18
74403;BME280;62837;51.082;13.744;2022-11-06T04:59:42;100743.39;;;6.00;70.83
74403;BME280;62837;51.082;13.744;2022-11-06T05:02:12;100744.34;;;6.01;72.23
74403;BME280;62837;51.082;13.744;2022-11-06T05:04:44;100737.68;;;6.16;72.71
74403;BME280;62837;51.082;13.744;2022-11-06T05:07:15;100730.98;;;6.29;72.47
74403;BME280;62837;51.082;13.744;2022-11-06T05:09:46;100733.08;;;6.41;72.60
74403;BME280;62837;51.082;13.744;2022-11-06T05:12:17;100735.05;;;6.54;72.81
74403;BME280;62837;51.082;13.744;2022-11-06T05:14:47;100726.05;;;6.68;72.56
74403;BME280;62837;51.082;13.744;2022-11-06T05:17:18;100724.42;;;6.75;70.74
74403;BME280;62837;51.082;13.744;2022-11-06T05:19:49;100717.67;;;6.69;71.16
74403;BME280;62837;51.082;13.744;2022-11-06T05:22:20;100717.09;;;6.68;70.56
74403;BME280;62837;51.082;13.744;2022-11-06T05:25:09;100718.77;;;6.69;71.11
74403;BME280;62837;51.082;13.744;2022-11-06T05:27:40;100717.70;;;6.74;70.92
74403;BME280;62837;51.082;13.744;2022-11-06T05:30:12;100722.34;;;6.80;71.24
74403;BME280;62837;51.082;13.744;2022-11-06T05:32:43;100713.88;;;6.82;69.87
74403;BME280;62837;51.082;13.744;2022-11-06T05:35:14;100714.75;;;6.59;68.76
74403;BME280;62837;51.082;13.744;2022-11-06T05:37:44;100713.37;;;6.25;69.45
74403;BME280;62837;51.082;13.744;2022-11-06T05:40:15;100718.45;;;6.09;69.60
74403;BME280;62837;51.082;13.744;2022-11-06T05:42:46;100722.98;;;5.85;69.90
74403;BME280;62837;51.082;13.744;2022-11-06T05:45:17;100719.67;;;5.74;71.35
74403;BME280;62837;51.082;13.744;2022-11-06T05:47:48;100716.86;;;5.90;72.71
74403;BME280;62837;51.082;13.744;2022-11-06T05:50:18;100719.79;;;6.06;71.07
74403;BME280;62837;51.082;13.744;2022-11-06T05:52:49;100722.06;;;6.04;71.19
74403;BME280;62837;51.082;13.744;2022-11-06T05:55:20;100728.50;;;6.03;70.48
74403;BME280;62837;51.082;13.744;2022-11-06T05:57:51;100730.88;;;6.00;71.83
74403;BME280;62837;51.082;13.744;2022-11-06T06:00:23;100728.55;;;6.00;70.41
74403;BME280;62837;51.082;13.744;2022-11-06T06:02:54;100730.70;;;5.86;72.12
74403;BME280;62837;51.082;13.744;2022-11-06T06:05:25;100727.96;;;5.91;72.79
74403;BME280;62837;51.082;13.744;2022-11-06T06:07:56;100728.47;;;6.02;73.74
74403;BME280;62837;51.082;13.744;2022-11-06T06:10:26;100721.84;;;6.18;72.76
74403;BME280;62837;51.082;13.744;2022-11-06T06:12:57;100721.33;;;6.23;72.27
74403;BME280;62837;51.082;13.744;2022-11-06T06:15:28;100723.98;;;6.22;70.86
74403;BME280;62837;51.082;13.744;2022-11-06T06:17:59;100726.85;;;6.11;71.34
74403;BME280;62837;51.082;13.744;2022-11-06T06:20:29;100725.77;;;6.12;71.84
74403;BME280;62837;51.082;13.744;2022-11-06T06:23:00;100727.73;;;6.10;70.93
74403;BME280;62837;51.082;13.744;2022-11-06T06:25:31;100726.67;;;6.00;70.88
74403;BME280;62837;51.082;13.744;2022-11-06T06:28:02;100734.30;;;5.95;71.89
74403;BME280;62837;51.082;13.744;2022-11-06T06:30:33;100733.91;;;6.04;71.94
74403;BME280;62837;51.082;13.744;2022-11-06T06:33:06;100738.73;;;6.06;71.43
74403;BME280;62837;51.082;13.744;2022-11-06T06:35:37;100736.54;;;6.01;71.21
74403;BME280;62837;51.082;13.744;2022-11-06T06:38:07;100735.59;;;5.99;71.38
74403;BME280;62837;51.082;13.744;2022-11-06T06:40:39;100739.97;;;6.01;72.25
74403;BME280;62837;51.082;13.744;2022-11-06T06:43:10;100742.94;;;6.11;71.32
74403;BME280;62837;51.082;13.744;2022-11-06T06:45:40;100740.84;;;6.11;71.00
74403;BME280;62837;51.082;13.744;2022-11-06T06:48:11;100747.30;;;6.05;70.56
74403;BME280;62837;51.082;13.744;2022-11-06T06:50:43;100749.30;;;6.01;71.51
74403;BME280;62837;51.082;13.744;2022-11-06T06:53:13;100750.20;;;6.05;70.88
74403;BME280;62837;51.082;13.744;2022-11-06T06:55:44;100756.65;;;6.08;71.53
74403;BME280;62837;51.082;13.744;2022-11-06T06:58:15;100751.19;;;6.29;71.33
74403;BME280;62837;51.082;13.744;2022-11-06T07:00:47;100757.53;;;6.51;71.43
74403;BME280;62837;51.082;13.744;2022-11-06T07:03:18;100759.15;;;6.67;71.30
74403;BME280;62837;51.082;13.744;2022-11-06T07:05:48;100761.25;;;6.87;71.59
74403;BME280;62837;51.082;13.744;2022-11-06T07:08:19;100756.27;;;7.13;71.72
74403;BME280;62837;51.082;13.744;2022-11-06T07:10:50;100757.86;;;7.48;71.15
74403;BME280;62837;51.082;13.744;2022-11-06T07:13:21;100761.77;;;7.80;70.38
74403;BME280;62837;51.082;13.744;2022-11-06T07:15:52;100758.73;;;8.01;69.73
74403;BME280;62837;51.082;13.744;2022-11-06T07:18:23;100761.39;;;8.27;69.47
74403;BME280;62837;51.082;13.744;2022-11-06T07:20:53;100763.91;;;8.56;69.25
74403;BME280;62837;51.082;13.744;2022-11-06T07:23:24;100758.61;;;8.87;68.48
74403;BME280;62837;51.082;13.744;2022-11-06T07:25:55;100758.53;;;9.13;68.36
74403;BME280;62837;51.082;13.744;2022-11-06T07:28:26;100757.35;;;9.39;67.88
74403;BME280;62837;51.082;13.744;2022-11-06T07:30:59;100762.09;;;9.53;66.65
74403;BME280;62837;51.082;13.744;2022-11-06T07:33:31;100762.55;;;9.59;67.26
74403;BME280;62837;51.082;13.744;2022-11-06T07:36:07;100759.34;;;9.80;67.02
74403;BME280;62837;51.082;13.744;2022-11-06T07:38:39;100756.42;;;10.00;66.72
74403;BME280;62837;51.082;13.744;2022-11-06T07:41:12;100756.52;;;10.15;66.18
74403;BME280;62837;51.082;13.744;2022-11-06T07:43:44;100756.38;;;10.29;65.67
74403;BME280;62837;51.082;13.744;2022-11-06T07:46:18;100759.27;;;10.39;65.05
74403;BME280;62837;51.082;13.744;2022-11-06T07:48:49;100753.55;;;10.46;64.64
74403;BME280;62837;51.082;13.744;2022-11-06T07:51:19;100754.57;;;10.44;64.20
74403;BME280;62837;51.082;13.744;2022-11-06T07:53:50;100757.23;;;10.49;64.36
74403;BME280;62837;51.082;13.744;2022-11-06T07:56:21;100751.63;;;10.53;63.98
74403;BME280;62837;51.082;13.744;2022-11-06T07:58:52;100750.70;;;10.60;64.17
74403;BME280;62837;51.082;13.744;2022-11-06T08:01:22;100746.73;;;10.74;64.29
74403;BME280;62837;51.082;13.744;2022-11-06T08:03:53;100752.18;;;10.84;64.26
74403;BME280;62837;51.082;13.744;2022-11-06T08:06:24;100751.27;;;10.96;63.83
74403;BME280;62837;51.082;13.744;2022-11-06T08:08:55;100749.15;;;11.03;63.46
74403;BME280;62837;51.082;13.744;2022-11-06T08:11:27;100745.42;;;11.07;63.52
74403;BME280;62837;51.082;13.744;2022-11-06T08:14:00;100740.39;;;11.17;63.08
74403;BME280;62837;51.082;13.744;2022-11-06T08:16:31;100740.20;;;11.28;62.55
74403;BME280;62837;51.082;13.744;2022-11-06T08:19:02;100735.79;;;11.32;61.98
74403;BME280;62837;51.082;13.744;2022-11-06T08:21:33;100732.88;;;11.33;62.13
74403;BME280;62837;51.082;13.744;2022-11-06T08:24:04;100727.46;;;11.35;62.42
74403;BME280;62837;51.082;13.744;2022-11-06T08:26:35;100720.64;;;11.44;62.23
74403;BME280;62837;51.082;13.744;2022-11-06T08:29:06;100717.72;;;11.53;62.23
74403;BME280;62837;51.082;13.744;2022-11-06T08:31:38;100714.71;;;11.64;61.90
74403;BME280;62837;51.082;13.744;2022-11-06T08:34:08;100716.60;;;11.71;61.90
74403;BME280;62837;51.082;13.744;2022-11-06T08:36:41;100714.83;;;11.82;61.67
74403;BME280;62837;51.082;13.744;2022-11-06T08:39:18;100710.25;;;11.98;61.48
74403;BME280;62837;51.082;13.744;2022-11-06T08:41:51;100706.52;;;12.11;61.42
74403;BME280;62837;51.082;13.744;2022-11-06T08:44:23;100703.17;;;12.23;60.99
74403;BME280;62837;51.082;13.744;2022-11-06T08:46:52;100699.54;;;12.30;60.99
74403;BME280;62837;51.082;13.744;2022-11-06T08:49:23;100693.33;;;12.40;60.87
74403;BME280;62837;51.082;13.744;2022-11-06T08:51:54;100686.56;;;12.42;60.75
74403;BME280;62837;51.082;13.744;2022-11-06T08:54:25;100694.61;;;12.49;60.38
74403;BME280;62837;51.082;13.744;2022-11-06T08:56:57;100696.11;;;12.52;60.05
74403;BME280;62837;51.082;13.744;2022-11-06T08:59:28;100696.99;;;12.52;59.97
74403;BME280;62837;51.082;13.744;2022-11-06T09:01:59;100697.44;;;12.59;60.03
74403;BME280;62837;51.082;13.744;2022-11-06T09:04:31;100695.33;;;12.66;59.61
74403;BME280;62837;51.082;13.744;2022-11-06T09:07:08;100697.64;;;12.63;59.85
74403;BME280;62837;51.082;13.744;2022-11-06T09:09:39;100690.06;;;12.61;59.42
74403;BME280;62837;51.082;13.744;2022-11-06T09:12:10;100688.23;;;12.60;59.63
74403;BME280;62837;51.082;13.744;2022-11-06T09:14:41;100688.56;;;12.60;59.35
74403;BME280;62837;51.082;13.744;2022-11-06T09:17:11;100680.40;;;12.54;59.15
74403;BME280;62837;51.082;13.744;2022-11-06T09:19:42;100678.93;;;12.40;59.42
74403;BME280;62837;51.082;13.744;2022-11-06T09:22:13;100679.05;;;12.42;59.76
74403;BME280;62837;51.082;13.744;2022-11-06T09:24:44;100673.92;;;12.49;59.63
74403;BME280;62837;51.082;13.744;2022-11-06T09:27:35;100668.11;;;12.55;59.39
74403;BME280;62837;51.082;13.744;2022-11-06T09:30:13;100663.27;;;12.56;59.30
74403;BME280;62837;51.082;13.744;2022-11-06T09:32:48;100662.74;;;12.60;59.53
74403;BME280;62837;51.082;13.744;2022-11-06T09:35:20;100661.30;;;12.66;59.33
74403;BME280;62837;51.082;13.744;2022-11-06T09:37:51;100660.05;;;12.70;59.47
74403;BME280;62837;51.082;13.744;2022-11-06T09:40:27;100658.81;;;12.76;59.84
74403;BME280;62837;51.082;13.744;2022-11-06T09:43:09;100661.45;;;12.84;60.04
74403;BME280;62837;51.082;13.744;2022-11-06T09:45:42;100661.62;;;12.92;59.33
74403;BME280;62837;51.082;13.744;2022-11-06T09:48:18;100662.35;;;12.95;58.84
74403;BME280;62837;51.082;13.744;2022-11-06T09:50:53;100666.41;;;12.91;59.01
74403;BME280;62837;51.082;13.744;2022-11-06T09:53:29;100665.91;;;12.92;58.99
74403;BME280;62837;51.082;13.744;2022-11-06T09:56:05;100659.42;;;12.97;58.84
74403;BME280;62837;51.082;13.744;2022-11-06T09:58:42;100648.67;;;13.00;58.61
74403;BME280;62837;51.082;13.744;2022-11-06T10:01:17;100646.93;;;13.03;58.73
74403;BME280;62837;51.082;13.744;2022-11-06T10:03:58;100648.65;;;13.07;58.44
74403;BME280;62837;51.082;13.744;2022-11-06T10:06:29;100637.72;;;13.07;58.33
74403;BME280;62837;51.082;13.744;2022-11-06T10:09:01;100631.92;;;13.05;58.23
74403;BME280;62837;51.082;13.744;2022-11-06T10:11:51;100621.36;;;13.02;58.09
74403;BME280;62837;51.082;13.744;2022-11-06T10:14:33;100613.29;;;12.99;58.04
74403;BME280;62837;51.082;13.744;2022-11-06T10:17:15;100604.44;;;12.94;58.20
74403;BME280;62837;51.082;13.744;2022-11-06T10:19:52;100602.77;;;12.92;58.27
74403;BME280;62837;51.082;13.744;2022-11-06T10:22:30;100600.72;;;12.90;58.09
74403;BME280;62837;51.082;13.744;2022-11-06T10:25:18;100593.20;;;12.88;57.95
74403;BME280;62837;51.082;13.744;2022-11-06T10:27:59;100591.91;;;12.85;58.02
74403;BME280;62837;51.082;13.744;2022-11-06T10:30:36;100589.14;;;12.82;57.96
74403;BME280;62837;51.082;13.744;2022-11-06T10:33:21;100582.01;;;12.81;58.45
74403;BME280;62837;51.082;13.744;2022-11-06T10:35:58;100577.50;;;12.79;58.43
74403;BME280;62837;51.082;13.744;2022-11-06T10:38:34;100574.61;;;12.78;57.95
74403;BME280;62837;51.082;13.744;2022-11-06T10:41:15;100573.20;;;12.72;58.18
74403;BME280;62837;51.082;13.744;2022-11-06T10:43:50;100565.18;;;12.69;58.54
74403;BME280;62837;51.082;13.744;2022-11-06T10:46:28;100568.22;;;12.70;58.68
74403;BME280;62837;51.082;13.744;2022-11-06T10:49:05;100567.13;;;12.70;59.01
74403;BME280;62837;51.082;13.744;2022-11-06T10:51:56;100559.72;;;12.71;58.56
74403;BME280;62837;51.082;13.744;2022-11-06T10:54:41;100554.95;;;12.75;58.33
74403;BME280;62837;51.082;13.744;2022-11-06T10:57:23;100554.61;;;12.73;58.07
74403;BME280;62837;51.082;13.744;2022-11-06T10:59:56;100551.52;;;12.71;58.27
74403;BME280;62837;51.082;13.744;2022-11-06T11:02:30;100553.06;;;12.70;58.19
74403;BME280;62837;51.082;13.744;2022-11-06T11:05:11;100550.02;;;12.70;58.30
74403;BME280;62837;51.082;13.744;2022-11-06T11:07:45;100546.33;;;12.73;58.15
74403;BME280;62837;51.082;13.744;2022-11-06T11:10:36;100540.92;;;12.73;57.92
74403;BME280;62837;51.082;13.744;2022-11-06T11:13:20;100537.02;;;12.75;57.86
74403;BME280;62837;51.082;13.744;2022-11-06T11:15:50;100527.96;;;12.76;57.51
74403;BME280;62837;51.082;13.744;2022-11-06T11:18:24;100521.52;;;12.77;57.23
74403;BME280;62837;51.082;13.744;2022-11-06T11:21:12;100509.23;;;12.79;57.12
74403;BME280;62837;51.082;13.744;2022-11-06T11:23:45;100502.65;;;12.81;56.81
74403;BME280;62837;51.082;13.744;2022-11-06T11:26:22;100497.35;;;12.81;56.34
74403;BME280;62837;51.082;13.744;2022-11-06T11:28:57;100493.21;;;12.81;55.74
74403;BME280;62837;51.082;13.744;2022-11-06T11:31:32;100487.91;;;12.78;54.01
74403;BME280;62837;51.082;13.744;2022-11-06T11:34:16;100487.48;;;12.83;54.26
74403;BME280;62837;51.082;13.744;2022-11-06T11:37:05;100486.70;;;12.86;53.78
74403;BME280;62837;51.082;13.744;2022-11-06T11:39:42;100474.24;;;12.87;53.60
74403;BME280;62837;51.082;13.744;2022-11-06T11:42:32;100469.29;;;12.88;53.97
74403;BME280;62837;51.082;13.744;2022-11-06T11:45:18;100464.52;;;12.90;53.80
74403;BME280;62837;51.082;13.744;2022-11-06T11:47:50;100460.36;;;12.92;53.97
74403;BME280;62837;51.082;13.744;2022-11-06T11:50:32;100460.48;;;12.94;53.21
74403;BME280;62837;51.082;13.744;2022-11-06T11:53:17;100458.48;;;12.93;52.67
74403;BME280;62837;51.082;13.744;2022-11-06T11:55:50;100453.27;;;12.89;53.04
74403;BME280;62837;51.082;13.744;2022-11-06T11:58:25;100447.17;;;12.77;54.11
74403;BME280;62837;51.082;13.744;2022-11-06T12:00:59;100452.80;;;12.81;54.49
74403;BME280;62837;51.082;13.744;2022-11-06T12:03:33;100453.04;;;12.79;54.53
74403;BME280;62837;51.082;13.744;2022-11-06T12:06:10;100447.72;;;12.75;54.55
74403;BME280;62837;51.082;13.744;2022-11-06T12:08:47;100440.34;;;12.74;54.84
74403;BME280;62837;51.082;13.744;2022-11-06T12:11:22;100434.82;;;12.75;55.13
74403;BME280;62837;51.082;13.744;2022-11-06T12:14:24;100432.06;;;12.75;54.93
74403;BME280;62837;51.082;13.744;2022-11-06T12:16:58;100428.74;;;12.73;54.73
74403;BME280;62837;51.082;13.744;2022-11-06T12:19:32;100425.64;;;12.70;53.98
74403;BME280;62837;51.082;13.744;2022-11-06T12:22:10;100424.48;;;12.70;53.23
74403;BME280;62837;51.082;13.744;2022-11-06T12:24:48;100416.31;;;12.70;52.81
74403;BME280;62837;51.082;13.744;2022-11-06T12:27:24;100408.20;;;12.71;52.36
74403;BME280;62837;51.082;13.744;2022-11-06T12:30:03;100404.77;;;12.71;51.27
74403;BME280;62837;51.082;13.744;2022-11-06T12:32:44;100401.52;;;12.70;51.15
74403;BME280;62837;51.082;13.744;2022-11-06T12:35:25;100404.13;;;12.70;51.82
74403;BME280;62837;51.082;13.744;2022-11-06T12:38:06;100399.55;;;12.70;51.63
74403;BME280;62837;51.082;13.744;2022-11-06T12:40:42;100396.14;;;12.69;51.73
74403;BME280;62837;51.082;13.744;2022-11-06T12:43:21;100392.31;;;12.70;51.99
74403;BME280;62837;51.082;13.744;2022-11-06T12:46:23;100387.23;;;12.70;52.43
74403;BME280;62837;51.082;13.744;2022-11-06T12:49:27;100385.63;;;12.71;51.79
74403;BME280;62837;51.082;13.744;2022-11-06T12:52:11;100381.07;;;12.69;51.94
74403;BME280;62837;51.082;13.744;2022-11-06T12:54:57;100372.73;;;12.68;52.00
74403;BME280;62837;51.082;13.744;2022-11-06T12:57:42;100370.08;;;12.68;52.16
74403;BME280;62837;51.082;13.744;2022-11-06T13:00:20;100367.86;;;12.67;52.51
74403;BME280;62837;51.082;13.744;2022-11-06T13:03:21;100369.56;;;12.66;52.10
74403;BME280;62837;51.082;13.744;2022-11-06T13:06:02;100361.13;;;12.64;51.79
74403;BME280;62837;51.082;13.744;2022-11-06T13:08:46;100360.73;;;12.62;52.03
74403;BME280;62837;51.082;13.744;2022-11-06T13:11:30;100358.20;;;12.61;51.72
74403;BME280;62837;51.082;13.744;2022-11-06T13:14:11;100362.83;;;12.57;51.61
74403;BME280;62837;51.082;13.744;2022-11-06T13:16:50;100360.39;;;12.53;51.99
74403;BME280;62837;51.082;13.744;2022-11-06T13:19:29;100360.05;;;12.51;51.98
74403;BME280;62837;51.082;13.744;2022-11-06T13:22:16;100354.31;;;12.47;52.09
74403;BME280;62837;51.082;13.744;2022-11-06T13:24:55;100346.52;;;12.46;52.64
74403;BME280;62837;51.082;13.744;2022-11-06T13:27:36;100343.71;;;12.44;52.81
74403;BME280;62837;51.082;13.744;2022-11-06T13:30:15;100339.23;;;12.42;53.13